createdAt,value
2017-12-15T00:01:49.993Z,20.33
2017-12-15T00:04:17.821Z,24.52
2017-12-15T00:06:45.670Z,15.07
2017-12-15T00:09:13.525Z,28.05
2017-12-15T00:11:41.360Z,22.37
2017-12-15T00:14:09.203Z,22.37
2017-12-15T00:16:37.033Z,26.90
2017-12-15T00:19:04.853Z,27.35
2017-12-15T00:21:32.666Z,20.23
2017-12-15T00:24:00.491Z,18.50
2017-12-15T00:26:29.081Z,24.67
2017-12-15T00:28:56.978Z,22.05
2017-12-15T00:31:24.804Z,16.23
2017-12-15T00:33:52.670Z,25.42
2017-12-15T00:36:20.794Z,24.48
2017-12-15T00:38:48.628Z,26.62
2017-12-15T00:41:16.477Z,25.23
2017-12-15T00:43:44.348Z,24.15
2017-12-15T00:46:12.178Z,26.20
2017-12-15T00:48:40.008Z,23.67
2017-12-15T00:51:07.837Z,26.05
2017-12-15T00:53:35.697Z,24.15
2017-12-15T00:56:03.520Z,24.52
2017-12-15T00:58:31.358Z,26.20
2017-12-15T01:00:59.213Z,25.25
2017-12-15T01:03:27.024Z,24.20
2017-12-15T01:05:54.849Z,24.33
2017-12-15T01:08:22.676Z,26.25
2017-12-15T01:10:50.529Z,19.42
2017-12-15T01:15:52.868Z,25.52
2017-12-15T01:18:20.704Z,22.50
2017-12-15T01:20:48.543Z,21.05
2017-12-15T01:23:16.377Z,25.98
2017-12-15T01:25:44.239Z,24.80
2017-12-15T01:28:12.059Z,25.33
2017-12-15T01:30:39.893Z,24.42
2017-12-15T01:33:07.763Z,25.15
2017-12-15T01:35:35.626Z,23.65
2017-12-15T01:38:03.453Z,24.63
2017-12-15T01:40:31.311Z,24.37
2017-12-15T01:42:59.185Z,25.20
2017-12-15T01:45:27.044Z,24.70
2017-12-15T01:47:54.889Z,22.20
2017-12-15T01:50:22.719Z,21.85
2017-12-15T01:52:50.576Z,23.27
2017-12-15T01:55:18.404Z,22.23
2017-12-15T01:57:46.253Z,25.15
2017-12-15T02:00:14.106Z,23.27
2017-12-15T02:02:41.964Z,23.45
2017-12-15T02:05:09.787Z,18.92
2017-12-15T02:07:37.671Z,24.63
2017-12-15T02:10:05.516Z,23.42
2017-12-15T02:12:33.384Z,23.08
2017-12-15T02:15:01.233Z,25.02
2017-12-15T02:17:29.088Z,18.52
2017-12-15T02:19:56.935Z,22.35
2017-12-15T02:22:24.804Z,23.87
2017-12-15T02:24:52.635Z,23.92
2017-12-15T02:27:20.512Z,22.00
2017-12-15T02:29:48.360Z,23.17
2017-12-15T02:32:16.215Z,23.73
2017-12-15T02:34:44.075Z,20.67
2017-12-15T02:37:11.905Z,23.80
2017-12-15T02:39:39.767Z,24.70
2017-12-15T02:42:07.581Z,26.42
2017-12-15T02:44:35.437Z,25.08
2017-12-15T02:47:03.298Z,24.87
2017-12-15T02:49:31.169Z,24.50
2017-12-15T02:51:59.053Z,25.52
2017-12-15T02:54:26.900Z,22.65
2017-12-15T02:56:54.727Z,25.08
2017-12-15T02:59:22.594Z,25.10
2017-12-15T03:01:50.459Z,25.02
2017-12-15T03:04:18.320Z,21.12
2017-12-15T03:06:46.157Z,25.15
2017-12-15T03:09:14.019Z,22.77
2017-12-15T03:11:41.883Z,24.73
2017-12-15T03:14:09.750Z,25.08
2017-12-15T03:16:37.581Z,23.70
2017-12-15T03:19:05.452Z,24.25
2017-12-15T03:21:33.327Z,25.65
2017-12-15T03:24:01.170Z,23.05
2017-12-15T03:26:29.024Z,20.83
2017-12-15T03:28:56.887Z,21.02
2017-12-15T03:31:24.736Z,22.02
2017-12-15T03:33:52.566Z,23.15
2017-12-15T03:36:20.416Z,22.85
2017-12-15T03:38:48.260Z,23.05
2017-12-15T03:41:16.128Z,25.45
2017-12-15T03:43:43.972Z,24.17
2017-12-15T03:46:11.836Z,21.90
2017-12-15T03:48:39.666Z,24.00
2017-12-15T03:51:07.493Z,23.17
2017-12-15T03:53:35.344Z,21.62
2017-12-15T03:56:03.184Z,24.30
2017-12-15T03:58:31.016Z,22.02
2017-12-15T04:00:58.853Z,21.55
2017-12-15T04:03:26.693Z,18.30
2017-12-15T04:05:54.503Z,22.37
2017-12-15T04:08:22.364Z,20.12
2017-12-15T04:10:50.191Z,20.77
2017-12-15T04:13:18.037Z,21.60
2017-12-15T04:15:45.869Z,15.82
2017-12-15T04:18:13.727Z,23.40
2017-12-15T04:20:41.695Z,20.95
2017-12-15T04:23:09.885Z,21.45
2017-12-15T04:25:37.869Z,22.05
2017-12-15T04:28:05.720Z,21.48
2017-12-15T04:30:33.556Z,22.48
2017-12-15T04:33:01.421Z,21.60
2017-12-15T04:35:29.261Z,17.10
2017-12-15T04:37:57.100Z,22.10
2017-12-15T04:40:24.933Z,22.67
2017-12-15T04:42:52.757Z,23.85
2017-12-15T04:45:20.602Z,23.17
2017-12-15T04:47:48.488Z,21.20
2017-12-15T04:50:16.336Z,23.00
2017-12-15T04:52:44.177Z,24.90
2017-12-15T04:55:12.022Z,23.10
2017-12-15T04:57:39.870Z,25.20
2017-12-15T05:00:07.692Z,25.52
2017-12-15T05:02:35.577Z,27.15
2017-12-15T05:05:03.417Z,24.17
2017-12-15T05:07:31.252Z,22.02
2017-12-15T05:09:59.101Z,22.13
2017-12-15T05:12:26.920Z,25.75
2017-12-15T05:14:54.756Z,27.87
2017-12-15T05:17:22.592Z,24.23
2017-12-15T05:19:50.480Z,25.37
2017-12-15T05:22:18.411Z,23.95
2017-12-15T05:24:46.308Z,25.92
2017-12-15T05:27:14.157Z,24.37
2017-12-15T05:29:41.988Z,26.58
2017-12-15T05:32:09.836Z,24.67
2017-12-15T05:34:37.667Z,28.45
2017-12-15T05:37:05.541Z,25.98
2017-12-15T05:39:33.406Z,24.35
2017-12-15T05:42:01.272Z,26.50
2017-12-15T05:44:29.137Z,28.05
2017-12-15T05:46:56.983Z,25.27
2017-12-15T05:49:24.789Z,26.52
2017-12-15T05:51:52.629Z,28.42
2017-12-15T05:54:20.500Z,27.90
2017-12-15T05:56:48.337Z,26.23
2017-12-15T05:59:16.136Z,30.75
2017-12-15T06:01:44.000Z,31.67
2017-12-15T06:04:11.861Z,26.27
2017-12-15T06:06:39.736Z,28.95
2017-12-15T06:09:07.703Z,27.42
2017-12-15T06:11:35.571Z,27.62
2017-12-15T06:14:03.437Z,28.70
2017-12-15T06:16:31.281Z,27.90
2017-12-15T06:18:59.161Z,20.33
2017-12-15T06:21:26.996Z,30.40
2017-12-15T06:23:54.812Z,26.73
2017-12-15T06:26:22.712Z,28.58
2017-12-15T06:28:50.581Z,23.38
2017-12-15T06:31:18.452Z,28.92
2017-12-15T06:33:46.357Z,29.08
2017-12-15T06:36:14.229Z,31.10
2017-12-15T06:38:42.089Z,30.85
2017-12-15T06:41:09.961Z,32.08
2017-12-15T06:43:37.784Z,27.33
2017-12-15T06:46:05.677Z,29.65
2017-12-15T06:48:36.890Z,30.20
2017-12-15T06:51:04.966Z,23.38
2017-12-15T06:53:32.822Z,27.67
2017-12-15T06:56:00.649Z,22.80
2017-12-15T06:58:28.513Z,26.33
2017-12-15T07:00:56.368Z,27.45
2017-12-15T07:03:24.261Z,29.27
2017-12-15T07:05:52.104Z,28.12
2017-12-15T07:08:19.965Z,22.48
2017-12-15T07:10:47.809Z,29.20
2017-12-15T07:13:15.699Z,27.92
2017-12-15T07:15:43.561Z,26.73
2017-12-15T07:18:11.432Z,28.25
2017-12-15T07:20:39.282Z,28.20
2017-12-15T07:23:07.121Z,27.70
2017-12-15T07:25:34.980Z,29.67
2017-12-15T07:28:09.272Z,30.60
2017-12-15T07:30:37.165Z,30.58
2017-12-15T07:33:05.050Z,29.50
2017-12-15T07:35:32.955Z,30.45
2017-12-15T07:38:07.261Z,29.40
2017-12-15T07:40:35.184Z,31.87
2017-12-15T07:43:03.053Z,29.63
2017-12-15T07:45:30.915Z,32.75
2017-12-15T07:48:04.766Z,31.42
2017-12-15T07:50:32.632Z,30.50
2017-12-15T07:53:00.765Z,31.77
2017-12-15T07:55:28.619Z,32.13
2017-12-15T07:57:56.499Z,32.83
2017-12-15T08:00:24.376Z,31.52
2017-12-15T08:02:52.265Z,33.60
2017-12-15T08:05:20.108Z,32.50
2017-12-15T08:07:48.012Z,32.58
2017-12-15T08:10:15.865Z,32.67
2017-12-15T08:12:43.737Z,31.77
2017-12-15T08:15:11.660Z,32.72
2017-12-15T08:17:39.579Z,32.40
2017-12-15T08:20:07.434Z,33.65
2017-12-15T08:22:35.300Z,30.98
2017-12-15T08:25:03.178Z,33.50
2017-12-15T08:27:31.032Z,34.85
2017-12-15T08:29:58.899Z,32.63
2017-12-15T08:32:26.732Z,33.30
2017-12-15T08:34:54.600Z,35.08
2017-12-15T08:37:22.404Z,32.22
2017-12-15T08:39:50.261Z,34.90
2017-12-15T08:42:18.122Z,31.20
2017-12-15T08:44:45.988Z,32.72
2017-12-15T08:47:13.874Z,32.78
2017-12-15T08:49:41.716Z,31.33
2017-12-15T08:52:09.590Z,33.63
2017-12-15T08:54:37.427Z,33.05
2017-12-15T08:57:05.347Z,30.88
2017-12-15T08:59:33.172Z,32.22
2017-12-15T09:02:01.003Z,30.88
2017-12-15T09:04:28.817Z,32.28
2017-12-15T09:06:56.628Z,31.45
2017-12-15T09:09:24.451Z,31.55
2017-12-15T09:11:52.297Z,25.30
2017-12-15T09:14:20.120Z,33.55
2017-12-15T09:16:47.964Z,35.90
2017-12-15T09:19:15.852Z,32.83
2017-12-15T09:21:43.685Z,30.67
2017-12-15T09:24:11.529Z,19.12
2017-12-15T09:26:39.392Z,29.20
2017-12-15T09:29:07.244Z,30.17
2017-12-15T09:31:35.104Z,31.37
2017-12-15T09:34:02.972Z,31.52
2017-12-15T09:36:30.788Z,30.75
2017-12-15T09:38:58.638Z,33.20
2017-12-15T09:41:26.460Z,27.77
2017-12-15T09:43:54.304Z,32.42
2017-12-15T09:46:22.156Z,33.28
2017-12-15T09:48:50.006Z,32.05
2017-12-15T09:51:17.875Z,32.22
2017-12-15T09:53:45.718Z,32.00
2017-12-15T09:56:13.533Z,33.38
2017-12-15T09:58:41.368Z,36.33
2017-12-15T10:01:09.216Z,26.30
2017-12-15T10:03:37.100Z,28.90
2017-12-15T10:06:04.940Z,32.75
2017-12-15T10:08:32.809Z,33.42
2017-12-15T10:11:00.653Z,34.28
2017-12-15T10:13:28.496Z,29.85
2017-12-15T10:15:56.308Z,31.58
2017-12-15T10:18:24.165Z,32.97
2017-12-15T10:20:52.053Z,21.87
2017-12-15T10:23:19.896Z,33.92
2017-12-15T10:25:47.749Z,27.42
2017-12-15T10:28:15.565Z,32.58
2017-12-15T10:30:43.422Z,32.35
2017-12-15T10:33:11.267Z,29.50
2017-12-15T10:35:39.145Z,31.50
2017-12-15T10:38:06.922Z,21.83
2017-12-15T10:40:34.771Z,29.50
2017-12-15T10:43:02.607Z,31.05
2017-12-15T10:45:30.444Z,33.88
2017-12-15T10:47:58.281Z,30.48
2017-12-15T10:50:26.117Z,34.00
2017-12-15T10:52:53.968Z,33.75
2017-12-15T10:55:21.848Z,19.30
2017-12-15T10:57:49.670Z,29.17
2017-12-15T11:00:17.482Z,29.12
2017-12-15T11:02:45.351Z,26.33
2017-12-15T11:05:13.246Z,25.15
2017-12-15T11:07:41.104Z,28.33
2017-12-15T11:10:08.945Z,27.10
2017-12-15T11:12:36.784Z,21.10
2017-12-15T11:15:04.606Z,27.83
2017-12-15T11:17:32.466Z,28.20
2017-12-15T11:20:00.405Z,22.98
2017-12-15T11:22:28.224Z,26.70
2017-12-15T11:24:56.324Z,26.58
2017-12-15T11:27:24.372Z,26.80
2017-12-15T11:29:52.240Z,29.63
2017-12-15T11:32:20.118Z,27.65
2017-12-15T11:34:48.177Z,26.48
2017-12-15T11:37:23.498Z,24.48
2017-12-15T11:40:13.142Z,26.98
2017-12-15T11:42:42.026Z,26.70
2017-12-15T11:48:02.169Z,27.25
2017-12-15T11:50:30.348Z,27.50
2017-12-15T11:52:58.529Z,25.90
2017-12-15T11:58:31.898Z,23.58
2017-12-15T12:09:27.011Z,27.75
2017-12-15T12:20:22.824Z,25.58
2017-12-15T12:22:50.842Z,22.30
2017-12-15T12:25:18.793Z,27.87
2017-12-15T12:27:46.880Z,21.45
2017-12-15T12:30:14.849Z,28.38
2017-12-15T12:32:42.682Z,21.77
2017-12-15T12:35:10.547Z,21.73
2017-12-15T12:37:38.456Z,25.50
2017-12-15T12:40:06.279Z,24.23
2017-12-15T12:42:34.126Z,22.30
2017-12-15T12:45:01.978Z,24.70
2017-12-15T12:47:29.833Z,25.65
2017-12-15T12:49:57.704Z,21.55
2017-12-15T12:52:25.539Z,24.77
2017-12-15T12:54:53.413Z,24.05
2017-12-15T12:57:21.288Z,27.37
2017-12-15T12:59:49.153Z,26.15
2017-12-15T13:02:16.999Z,23.35
2017-12-15T13:05:00.700Z,23.85
2017-12-15T13:07:28.571Z,27.23
2017-12-15T13:09:56.446Z,24.15
2017-12-15T13:12:24.312Z,24.75
2017-12-15T13:14:52.201Z,24.87
2017-12-15T13:17:20.069Z,25.20
2017-12-15T13:19:47.932Z,26.62
2017-12-15T13:22:15.798Z,25.02
2017-12-15T13:24:43.666Z,22.13
2017-12-15T13:27:11.534Z,27.08
2017-12-15T13:29:39.421Z,26.30
2017-12-15T13:32:07.261Z,30.33
2017-12-15T13:34:35.129Z,26.52
2017-12-15T13:37:02.997Z,24.20
2017-12-15T13:39:30.857Z,23.95
2017-12-15T13:41:58.684Z,27.42
2017-12-15T13:44:26.522Z,32.28
2017-12-15T13:46:54.397Z,35.95
2017-12-15T13:49:22.224Z,33.55
2017-12-15T13:51:50.128Z,32.13
2017-12-15T13:54:18.000Z,29.20
2017-12-15T13:56:45.875Z,31.95
2017-12-15T13:59:13.728Z,32.00
2017-12-15T14:01:41.579Z,30.33
2017-12-15T14:04:16.192Z,30.12
2017-12-15T14:06:44.057Z,34.15
2017-12-15T14:09:11.924Z,31.30
2017-12-15T14:11:39.780Z,34.78
2017-12-15T14:14:07.641Z,29.85
2017-12-15T14:16:35.477Z,30.62
2017-12-15T14:19:03.365Z,28.05
2017-12-15T14:21:31.197Z,29.55
2017-12-15T14:23:59.051Z,27.73
2017-12-15T14:26:26.897Z,21.77
2017-12-15T14:28:54.749Z,28.33
2017-12-15T14:31:22.596Z,32.45
2017-12-15T14:33:50.468Z,33.55
2017-12-15T14:36:18.321Z,28.40
2017-12-15T14:38:52.900Z,29.10
2017-12-15T14:41:20.887Z,28.45
2017-12-15T14:43:48.877Z,29.55
2017-12-15T14:46:16.723Z,30.45
2017-12-15T14:48:51.761Z,28.40
2017-12-15T14:51:12.580Z,27.37
2017-12-15T14:53:40.432Z,27.90
2017-12-15T14:56:08.298Z,30.23
2017-12-15T14:58:36.227Z,33.63
2017-12-15T15:01:04.075Z,28.50
2017-12-15T15:03:31.925Z,32.17
2017-12-15T15:05:59.812Z,27.83
2017-12-15T15:08:27.655Z,28.40
2017-12-15T15:10:55.501Z,29.42
2017-12-15T15:13:23.351Z,29.52
2017-12-15T15:15:51.248Z,26.55
2017-12-15T15:18:25.334Z,30.48
2017-12-15T15:20:53.220Z,31.45
2017-12-15T15:23:21.081Z,26.23
2017-12-15T15:25:48.941Z,33.78
2017-12-15T15:28:16.807Z,27.50
2017-12-15T15:30:51.097Z,37.50
2017-12-15T15:33:22.484Z,35.55
2017-12-15T15:41:43.963Z,36.08
2017-12-15T15:44:11.866Z,36.67
2017-12-15T15:46:39.850Z,37.60
2017-12-15T15:49:08.006Z,35.88
2017-12-15T15:51:43.965Z,39.97
2017-12-15T15:54:15.688Z,35.42
2017-12-15T15:56:43.660Z,35.60
2017-12-15T15:59:11.626Z,36.08
2017-12-15T16:01:39.667Z,38.08
2017-12-15T16:04:07.645Z,37.08
2017-12-15T16:06:35.531Z,39.13
2017-12-15T16:09:03.521Z,33.20
2017-12-15T16:14:36.491Z,36.08
2017-12-15T16:17:15.399Z,31.85
2017-12-15T16:19:44.463Z,35.80
2017-12-15T16:25:14.069Z,36.60
2017-12-15T16:27:42.030Z,35.05
2017-12-15T16:30:09.865Z,34.45
2017-12-15T16:32:37.754Z,31.65
2017-12-15T16:35:05.613Z,29.70
2017-12-15T16:37:33.471Z,29.70
2017-12-15T16:40:01.321Z,36.38
2017-12-15T16:42:29.152Z,30.90
2017-12-15T16:44:57.015Z,30.80
2017-12-15T16:47:24.861Z,33.47
2017-12-15T16:49:52.703Z,31.52
2017-12-15T16:52:20.562Z,31.60
2017-12-15T16:54:48.459Z,23.60
2017-12-15T16:57:16.320Z,25.75
2017-12-15T16:59:44.197Z,28.23
2017-12-15T17:02:12.043Z,27.70
2017-12-15T17:04:39.893Z,26.37
2017-12-15T17:07:07.812Z,27.30
2017-12-15T17:09:35.604Z,28.92
2017-12-15T17:12:03.437Z,25.58
2017-12-15T17:14:31.324Z,27.23
2017-12-15T17:16:59.168Z,27.15
2017-12-15T17:19:27.018Z,25.30
2017-12-15T17:21:54.888Z,27.30
2017-12-15T17:24:22.796Z,25.40
2017-12-15T17:26:50.673Z,29.42
2017-12-15T17:29:18.563Z,26.33
2017-12-15T17:31:46.496Z,25.27
2017-12-15T17:34:14.364Z,18.23
2017-12-15T17:36:42.216Z,28.27
2017-12-15T17:39:10.060Z,23.52
2017-12-15T17:41:37.917Z,22.60
2017-12-15T17:44:05.782Z,24.45
2017-12-15T17:46:33.680Z,26.65
2017-12-15T17:49:01.533Z,24.58
2017-12-15T17:51:29.449Z,25.08
2017-12-15T17:53:57.296Z,26.45
2017-12-15T17:56:25.188Z,23.60
2017-12-15T17:58:53.088Z,23.92
2017-12-15T18:01:20.949Z,24.30
2017-12-15T18:03:48.841Z,22.80
2017-12-15T18:06:16.679Z,22.58
2017-12-15T18:08:44.521Z,22.75
2017-12-15T18:11:12.373Z,23.08
2017-12-15T18:13:40.207Z,19.23
2017-12-15T18:16:08.044Z,20.90
2017-12-15T18:18:35.914Z,21.60
2017-12-15T18:21:03.807Z,25.25
2017-12-15T18:23:31.693Z,22.30
2017-12-15T18:25:59.560Z,21.65
2017-12-15T18:28:27.427Z,16.83
2017-12-15T18:30:55.251Z,22.98
2017-12-15T18:33:23.120Z,21.15
2017-12-15T18:35:50.966Z,21.90
2017-12-15T18:38:18.804Z,23.50
2017-12-15T18:40:46.655Z,22.48
2017-12-15T18:43:14.529Z,19.50
2017-12-15T18:45:42.394Z,21.05
2017-12-15T18:48:10.264Z,22.95
2017-12-15T18:50:38.131Z,22.80
2017-12-15T18:53:05.985Z,22.08
2017-12-15T18:55:33.821Z,20.98
2017-12-15T18:58:04.738Z,26.37
2017-12-15T19:00:32.598Z,22.08
2017-12-15T19:03:00.441Z,22.52
2017-12-15T19:05:28.306Z,21.30
2017-12-15T19:07:56.144Z,19.37
2017-12-15T19:10:23.970Z,20.25
2017-12-15T19:12:51.860Z,23.92
2017-12-15T19:15:19.750Z,22.67
2017-12-15T19:17:47.670Z,22.87
2017-12-15T19:20:15.560Z,24.05
2017-12-15T19:22:43.490Z,21.33
2017-12-15T19:25:11.388Z,24.50
2017-12-15T19:27:39.244Z,21.55
2017-12-15T19:30:07.214Z,22.55
2017-12-15T19:32:44.069Z,22.52
2017-12-15T19:35:15.509Z,23.35
2017-12-15T19:37:43.389Z,23.83
2017-12-15T19:40:11.353Z,21.62
2017-12-15T19:42:39.224Z,19.10
2017-12-15T19:45:07.049Z,19.42
2017-12-15T19:47:34.921Z,20.92
2017-12-15T19:50:02.812Z,21.65
2017-12-15T19:52:30.677Z,21.02
2017-12-15T19:54:58.523Z,22.27
2017-12-15T20:00:16.575Z,21.80
2017-12-15T20:02:44.471Z,23.92
2017-12-15T20:05:12.339Z,21.60
2017-12-15T20:07:40.184Z,15.90
2017-12-15T20:10:08.046Z,23.27
2017-12-15T20:12:35.891Z,20.73
2017-12-15T20:15:03.756Z,22.13
2017-12-15T20:17:35.237Z,25.10
2017-12-15T20:20:03.144Z,18.40
2017-12-15T20:22:31.025Z,22.60
2017-12-15T20:24:58.938Z,23.83
2017-12-15T20:27:26.794Z,23.92
2017-12-15T20:29:54.660Z,20.35
2017-12-15T20:32:22.543Z,23.05
2017-12-15T20:34:50.416Z,20.27
2017-12-15T20:39:59.745Z,22.58
2017-12-15T20:45:21.321Z,22.55
2017-12-15T20:47:49.234Z,22.33
2017-12-15T20:50:17.091Z,23.08
2017-12-15T20:52:44.955Z,23.10
2017-12-15T20:55:12.819Z,22.67
2017-12-15T20:57:46.944Z,19.62
2017-12-15T21:00:14.849Z,24.10
2017-12-15T21:02:42.720Z,22.98
2017-12-15T21:05:10.605Z,19.92
2017-12-15T21:07:38.466Z,22.02
2017-12-15T21:10:06.332Z,14.02
2017-12-15T21:12:34.234Z,21.00
2017-12-15T21:15:02.105Z,21.42
2017-12-15T21:17:29.963Z,18.37
2017-12-15T21:19:57.865Z,19.67
2017-12-15T21:22:25.712Z,20.27
2017-12-15T21:24:53.573Z,20.27
2017-12-15T21:27:21.433Z,22.62
2017-12-15T21:29:49.305Z,20.40
2017-12-15T21:32:17.197Z,21.10
2017-12-15T21:34:45.094Z,20.65
2017-12-15T21:37:12.973Z,18.92
2017-12-15T21:39:40.891Z,22.37
2017-12-15T21:42:08.747Z,20.75
2017-12-15T21:44:36.626Z,24.08
2017-12-15T21:47:04.577Z,23.75
2017-12-15T21:49:32.468Z,18.77
2017-12-15T21:52:00.336Z,22.75
2017-12-15T21:54:28.189Z,19.83
2017-12-15T21:56:56.097Z,22.77
2017-12-15T21:59:23.966Z,23.50
2017-12-15T22:01:51.827Z,24.45
2017-12-15T22:04:19.690Z,19.75
2017-12-15T22:06:47.580Z,22.40
2017-12-15T22:09:15.422Z,23.98
2017-12-15T22:11:43.321Z,23.80
2017-12-15T22:14:11.194Z,23.15
2017-12-15T22:16:39.093Z,22.30
2017-12-15T22:19:06.968Z,26.02
2017-12-15T22:21:34.854Z,22.05
2017-12-15T22:24:02.762Z,26.45
2017-12-15T22:26:30.644Z,21.35
2017-12-15T22:28:58.528Z,22.23
2017-12-15T22:31:26.403Z,22.48
2017-12-15T22:33:54.283Z,21.90
2017-12-15T22:36:22.152Z,22.87
2017-12-15T22:38:56.966Z,21.65
2017-12-15T22:41:25.697Z,20.25
2017-12-15T22:43:53.585Z,16.45
2017-12-15T22:46:21.447Z,19.37
2017-12-15T22:48:49.296Z,19.48
2017-12-15T22:51:17.184Z,20.48
2017-12-15T22:53:45.000Z,19.73
2017-12-15T22:56:12.836Z,11.80
2017-12-15T22:58:40.689Z,19.17
2017-12-15T23:01:08.541Z,19.52
2017-12-15T23:03:44.845Z,17.40
2017-12-15T23:06:13.913Z,18.60
2017-12-15T23:08:50.868Z,18.80
2017-12-15T23:11:19.957Z,16.02
2017-12-15T23:13:50.728Z,15.68
2017-12-15T23:16:18.739Z,21.02
2017-12-15T23:18:48.574Z,15.25
2017-12-15T23:21:27.128Z,17.52
2017-12-15T23:23:55.357Z,19.77
2017-12-15T23:26:23.511Z,17.40
2017-12-15T23:28:51.968Z,18.10
2017-12-15T23:31:45.560Z,15.18
2017-12-15T23:34:14.002Z,22.02
2017-12-15T23:36:42.182Z,22.52
2017-12-15T23:39:10.122Z,15.80
2017-12-15T23:41:37.965Z,19.10
2017-12-15T23:44:05.829Z,19.25
2017-12-15T23:46:33.777Z,18.48
2017-12-15T23:49:01.629Z,16.60
2017-12-15T23:51:29.577Z,15.85
2017-12-15T23:56:54.359Z,22.80
2017-12-15T23:59:22.224Z,12.88
